Time;durP1;ratioP1;P1;durP2;ratioP2;P2;SDS_P1;SDS_P2;PMS_P1;PMS_P2;Temp;Humidity;BMP_temperature;BMP_pressure;BME280_temperature;BME280_humidity;BME280_pressure;Samples;Min_cycle;Max_cycle;Signal;HPM_P1;HPM_P2
2022/10/05 00:00:55;;;;;;;;;7.33;6.00;;;;;;;;5061057;28;45279;-78
2022/10/05 00:03:21;;;;;;;;;7.33;6.00;;;;;;;;5093022;27;45462;-79
2022/10/05 00:05:47;;;;;;;;;6.33;6.00;;;;;;;;5060757;28;45488;-79
2022/10/05 00:08:21;;;;;;;;;6.67;6.00;;;;;;;;5060556;28;45465;-79
2022/10/05 00:10:46;;;;;;;;;8.00;7.00;;;;;;;;5052064;28;46152;-78
2022/10/05 00:13:15;;;;;;;;;2.33;1.00;;;;;;;;5055666;28;45405;-78
2022/10/05 00:15:41;;;;;;;;;8.00;8.00;;;;;;;;5054273;28;45473;-79
2022/10/05 00:18:14;;;;;;;;;9.33;8.33;;;;;;;;5091793;27;45594;-79
2022/10/05 00:20:40;;;;;;;;;8.00;8.00;;;;;;;;5058785;28;45006;-79
2022/10/05 00:23:06;;;;;;;;;9.67;7.00;;;;;;;;5062413;28;45215;-78
2022/10/05 00:25:31;;;;;;;;;9.00;8.00;;;;;;;;5055781;28;45284;-79
2022/10/05 00:27:58;;;;;;;;;10.00;9.33;;;;;;;;5056890;28;45609;-78
2022/10/05 00:30:25;;;;;;;;;9.00;8.33;;;;;;;;5058219;28;45442;-78
2022/10/05 00:32:50;;;;;;;;;8.00;7.00;;;;;;;;5057678;28;45510;-79
2022/10/05 00:35:17;;;;;;;;;9.00;8.00;;;;;;;;5060597;28;45295;-78
2022/10/05 00:37:42;;;;;;;;;9.67;8.33;;;;;;;;5058505;28;45437;-78
2022/10/05 00:40:20;;;;;;;;;9.33;9.33;;;;;;;;5058676;28;45734;-78
2022/10/05 00:42:52;;;;;;;;;8.00;8.00;;;;;;;;5058689;28;45247;-78
2022/10/05 00:45:22;;;;;;;;;6.33;6.00;;;;;;;;5057807;28;45299;-78
2022/10/05 00:47:54;;;;;;;;;7.67;7.00;;;;;;;;5055492;28;45481;-78
2022/10/05 00:50:25;;;;;;;;;9.00;9.00;;;;;;;;5066176;28;47886;-80
2022/10/05 00:52:55;;;;;;;;;10.00;9.00;;;;;;;;5055193;28;45454;-78
2022/10/05 00:55:33;;;;;;;;;8.33;8.00;;;;;;;;5051272;28;45283;-79
2022/10/05 00:58:17;;;;;;;;;8.00;8.00;;;;;;;;5094357;27;45190;-79
2022/10/05 01:01:03;;;;;;;;;7.00;7.00;;;;;;;;5056303;28;46393;-78
2022/10/05 01:03:38;;;;;;;;;7.00;7.00;;;;;;;;5054288;28;45307;-79
2022/10/05 01:06:03;;;;;;;;;8.33;8.33;;;;;;;;5057125;28;45273;-78
2022/10/05 01:08:47;;;;;;;;;7.67;7.67;;;;;;;;5055946;28;45264;-79
2022/10/05 01:11:18;;;;;;;;;9.33;8.33;;;;;;;;5044212;28;46667;-79
2022/10/05 01:14:01;;;;;;;;;9.67;8.67;;;;;;;;5059989;28;45415;-78
2022/10/05 01:16:26;;;;;;;;;7.67;7.67;;;;;;;;5054704;28;45358;-79
2022/10/05 01:18:51;;;;;;;;;9.67;8.00;;;;;;;;5057737;28;45383;-79
2022/10/05 01:21:20;;;;;;;;;8.00;8.00;;;;;;;;5065551;28;46095;-79
2022/10/05 01:24:14;;;;;;;;;9.00;8.00;;;;;;;;5052315;28;45316;-79
2022/10/05 01:26:39;;;;;;;;;9.00;8.67;;;;;;;;5044820;28;45531;-78
2022/10/05 01:29:08;;;;;;;;;8.67;8.67;;;;;;;;5052861;28;45721;-78
2022/10/05 01:31:33;;;;;;;;;9.67;9.67;;;;;;;;5055776;28;45247;-79
2022/10/05 01:34:07;;;;;;;;;11.00;10.00;;;;;;;;5054817;28;45151;-79
2022/10/05 01:36:36;;;;;;;;;13.00;11.00;;;;;;;;5055862;28;45310;-78
2022/10/05 01:39:07;;;;;;;;;11.00;8.67;;;;;;;;5048778;28;45328;-79
2022/10/05 01:41:51;;;;;;;;;11.33;9.00;;;;;;;;5055278;28;45359;-78
2022/10/05 01:44:19;;;;;;;;;11.00;10.00;;;;;;;;5053860;28;45241;-78
2022/10/05 01:46:50;;;;;;;;;15.33;12.67;;;;;;;;5053750;28;45289;-79
2022/10/05 01:49:27;;;;;;;;;12.00;11.00;;;;;;;;5058197;28;45269;-79
2022/10/05 01:51:55;;;;;;;;;11.33;11.33;;;;;;;;5055769;28;45176;-78
2022/10/05 01:54:41;;;;;;;;;11.00;9.00;;;;;;;;5056150;28;45296;-79
2022/10/05 01:57:16;;;;;;;;;12.33;9.33;;;;;;;;5044272;28;45740;-80
2022/10/05 01:59:47;;;;;;;;;9.67;9.00;;;;;;;;5052824;28;45423;-78
2022/10/05 02:02:16;;;;;;;;;9.67;8.00;;;;;;;;5048688;28;45240;-79
2022/10/05 02:04:47;;;;;;;;;7.33;7.33;;;;;;;;5048804;28;45257;-79
2022/10/05 02:07:39;;;;;;;;;7.00;7.00;;;;;;;;5056201;28;45238;-78
2022/10/05 02:10:10;;;;;;;;;7.00;7.00;;;;;;;;5045484;28;45369;-78
2022/10/05 02:12:36;;;;;;;;;6.67;6.67;;;;;;;;5052267;28;45480;-79
2022/10/05 02:15:13;;;;;;;;;3.33;3.00;;;;;;;;5051791;28;45433;-79
2022/10/05 02:17:44;;;;;;;;;6.00;6.00;;;;;;;;5053915;28;45730;-78
2022/10/05 02:20:10;;;;;;;;;8.00;6.33;;;;;;;;5053913;28;45293;-79
2022/10/05 02:22:38;;;;;;;;;4.00;4.00;;;;;;;;5053340;28;46721;-79
2022/10/05 02:25:08;;;;;;;;;5.33;5.33;;;;;;;;5056142;27;45355;-79
2022/10/05 02:27:37;;;;;;;;;6.33;3.67;;;;;;;;5055942;28;45310;-79
2022/10/05 02:30:04;;;;;;;;;4.00;4.00;;;;;;;;5058579;28;45384;-79
2022/10/05 02:32:53;;;;;;;;;5.33;5.00;;;;;;;;5056980;28;45408;-78
2022/10/05 02:35:18;;;;;;;;;4.00;4.00;;;;;;;;5036538;28;45271;-78
2022/10/05 02:37:47;;;;;;;;;4.33;4.00;;;;;;;;5051875;28;45506;-78
2022/10/05 02:40:27;;;;;;;;;4.00;4.00;;;;;;;;5064486;28;45396;-79
2022/10/05 02:42:52;;;;;;;;;4.33;4.33;;;;;;;;5052632;28;45462;-78
2022/10/05 02:45:37;;;;;;;;;5.00;5.00;;;;;;;;5069544;28;45254;-79
2022/10/05 02:48:06;;;;;;;;;4.00;4.00;;;;;;;;5052613;28;45489;-79
2022/10/05 02:50:32;;;;;;;;;5.00;4.00;;;;;;;;5046228;28;45496;-79
2022/10/05 02:53:03;;;;;;;;;3.67;3.67;;;;;;;;5053391;28;45497;-78
2022/10/05 02:55:39;;;;;;;;;5.00;5.00;;;;;;;;5053517;28;46167;-78
2022/10/05 02:58:08;;;;;;;;;4.00;4.00;;;;;;;;5051422;28;45498;-79
2022/10/05 03:00:40;;;;;;;;;3.33;3.33;;;;;;;;5052313;28;45443;-79
2022/10/05 03:03:11;;;;;;;;;4.67;4.67;;;;;;;;5052605;28;47004;-79
2022/10/05 03:05:40;;;;;;;;;3.00;3.00;;;;;;;;5046925;28;45421;-79
2022/10/05 03:08:15;;;;;;;;;2.67;2.67;;;;;;;;5054167;28;45465;-79
2022/10/05 03:10:58;;;;;;;;;3.67;3.00;;;;;;;;5055796;28;45385;-78
2022/10/05 03:13:38;;;;;;;;;2.33;2.00;;;;;;;;5055718;28;45441;-79
2022/10/05 03:16:06;;;;;;;;;2.67;2.67;;;;;;;;5052665;28;45391;-79
2022/10/05 03:18:32;;;;;;;;;4.67;4.00;;;;;;;;5061009;28;45181;-79
2022/10/05 03:21:15;;;;;;;;;4.00;4.00;;;;;;;;5053111;28;45739;-79
2022/10/05 03:23:48;;;;;;;;;6.00;5.00;;;;;;;;5054359;28;45277;-78
2022/10/05 03:26:16;;;;;;;;;3.00;3.00;;;;;;;;5053345;28;45418;-78
2022/10/05 03:28:44;;;;;;;;;4.00;4.00;;;;;;;;5051949;28;45336;-78
2022/10/05 03:31:30;;;;;;;;;4.00;4.00;;;;;;;;5056326;28;45391;-80
2022/10/05 03:33:59;;;;;;;;;3.00;2.00;;;;;;;;5051505;28;45358;-79
2022/10/05 03:36:42;;;;;;;;;5.00;3.33;;;;;;;;5045132;28;45446;-79
2022/10/05 03:39:24;;;;;;;;;3.00;3.00;;;;;;;;5050406;28;45368;-79
2022/10/05 03:41:57;;;;;;;;;4.00;3.00;;;;;;;;5047311;28;45423;-79
2022/10/05 03:44:35;;;;;;;;;4.00;4.00;;;;;;;;5055044;28;45402;-79
2022/10/05 03:47:19;;;;;;;;;6.33;4.00;;;;;;;;5049829;28;45470;-79
2022/10/05 03:50:03;;;;;;;;;3.33;3.33;;;;;;;;5050592;28;45408;-79
2022/10/05 03:52:34;;;;;;;;;5.00;4.00;;;;;;;;5052601;28;47184;-79
2022/10/05 03:55:02;;;;;;;;;5.67;4.00;;;;;;;;5056652;28;45292;-78
2022/10/05 03:57:31;;;;;;;;;3.00;3.00;;;;;;;;5056632;28;45242;-79
2022/10/05 03:59:59;;;;;;;;;3.00;3.00;;;;;;;;5060252;28;45257;-78
2022/10/05 04:02:27;;;;;;;;;5.00;3.33;;;;;;;;5059209;28;45319;-78
2022/10/05 04:05:02;;;;;;;;;6.00;3.00;;;;;;;;5060861;28;45206;-79
2022/10/05 04:07:30;;;;;;;;;3.33;3.33;;;;;;;;5060805;28;44894;-78
2022/10/05 04:09:56;;;;;;;;;4.00;4.00;;;;;;;;5049554;28;45407;-79
2022/10/05 04:12:27;;;;;;;;;4.00;4.00;;;;;;;;5047593;28;45541;-79
2022/10/05 04:14:55;;;;;;;;;4.33;4.33;;;;;;;;5051153;28;45284;-79
2022/10/05 04:17:28;;;;;;;;;4.33;4.00;;;;;;;;5050713;28;45337;-79
2022/10/05 04:19:57;;;;;;;;;5.67;5.00;;;;;;;;5052827;28;45218;-80
2022/10/05 04:22:23;;;;;;;;;5.00;4.00;;;;;;;;5059123;28;45493;-79
2022/10/05 04:24:52;;;;;;;;;5.33;4.00;;;;;;;;5061416;28;45370;-79
2022/10/05 04:27:23;;;;;;;;;5.00;5.00;;;;;;;;5088261;27;45288;-79
2022/10/05 04:30:04;;;;;;;;;5.00;4.33;;;;;;;;5060483;28;45233;-79
2022/10/05 04:32:30;;;;;;;;;6.00;5.00;;;;;;;;5053915;28;45677;-78
2022/10/05 04:35:14;;;;;;;;;5.33;4.67;;;;;;;;5057331;28;46106;-78
2022/10/05 04:37:48;;;;;;;;;5.33;5.00;;;;;;;;5057070;28;45465;-78
2022/10/05 04:40:13;;;;;;;;;5.00;5.00;;;;;;;;5053442;28;45242;-77
2022/10/05 04:42:44;;;;;;;;;5.67;5.00;;;;;;;;5067625;28;47280;-78
2022/10/05 04:45:18;;;;;;;;;5.00;4.00;;;;;;;;5057769;28;45642;-78
2022/10/05 04:47:47;;;;;;;;;5.33;5.00;;;;;;;;5059011;28;45496;-77
2022/10/05 04:50:12;;;;;;;;;5.33;4.00;;;;;;;;5057454;28;45443;-77
2022/10/05 04:52:56;;;;;;;;;5.00;5.00;;;;;;;;5057938;28;45568;-76
2022/10/05 04:55:37;;;;;;;;;6.67;5.00;;;;;;;;5058585;28;45435;-76
2022/10/05 04:58:17;;;;;;;;;4.00;4.00;;;;;;;;5060098;28;45507;-77
2022/10/05 05:00:48;;;;;;;;;6.00;6.00;;;;;;;;5059136;28;45580;-76
2022/10/05 05:03:13;;;;;;;;;6.00;5.00;;;;;;;;5059956;28;45521;-77
2022/10/05 05:05:53;;;;;;;;;4.50;4.50;;;;;;;;5045275;28;47019;-76
2022/10/05 05:08:27;;;;;;;;;4.00;3.33;;;;;;;;5056464;28;45242;-76
2022/10/05 05:10:59;;;;;;;;;6.00;5.00;;;;;;;;5058148;28;45507;-76
2022/10/05 05:13:24;;;;;;;;;5.67;5.33;;;;;;;;5058431;28;45372;-76
2022/10/05 05:15:52;;;;;;;;;4.67;4.67;;;;;;;;5052587;28;46210;-76
2022/10/05 05:18:24;;;;;;;;;4.00;4.00;;;;;;;;5058758;28;45237;-76
2022/10/05 05:21:07;;;;;;;;;4.33;4.33;;;;;;;;5060460;28;45581;-76
2022/10/05 05:23:41;;;;;;;;;4.00;4.00;;;;;;;;5059418;28;45454;-77
2022/10/05 05:26:25;;;;;;;;;4.00;3.33;;;;;;;;5058623;28;45334;-77
2022/10/05 05:29:04;;;;;;;;;5.00;5.00;;;;;;;;5052386;28;45279;-77
2022/10/05 05:31:32;;;;;;;;;5.00;5.00;;;;;;;;5053058;28;45525;-77
2022/10/05 05:34:04;;;;;;;;;3.67;3.67;;;;;;;;5057584;28;45418;-78
2022/10/05 05:36:35;;;;;;;;;4.33;4.33;;;;;;;;5056543;28;45493;-76
2022/10/05 05:39:12;;;;;;;;;5.00;4.00;;;;;;;;5056981;28;45350;-77
2022/10/05 05:41:38;;;;;;;;;8.00;7.00;;;;;;;;5080733;27;45402;-76
2022/10/05 05:44:04;;;;;;;;;5.33;4.00;;;;;;;;5058676;28;45304;-77
2022/10/05 05:46:49;;;;;;;;;5.00;5.00;;;;;;;;5056002;28;45618;-77
2022/10/05 05:49:21;;;;;;;;;6.00;5.00;;;;;;;;5049611;28;45377;-77
2022/10/05 05:52:12;;;;;;;;;4.33;4.33;;;;;;;;5051123;28;45506;-76
2022/10/05 05:54:38;;;;;;;;;10.67;4.67;;;;;;;;5032364;28;45537;-77
2022/10/05 05:57:12;;;;;;;;;7.00;6.00;;;;;;;;5067405;28;45299;-76
2022/10/05 05:59:56;;;;;;;;;6.33;6.33;;;;;;;;5059312;28;45427;-76
2022/10/05 06:02:51;;;;;;;;;6.00;4.00;;;;;;;;5058892;28;45537;-77
2022/10/05 06:05:29;;;;;;;;;6.00;5.00;;;;;;;;4986894;28;45381;-76
2022/10/05 06:07:55;;;;;;;;;7.00;7.00;;;;;;;;5058558;28;45358;-77
2022/10/05 06:10:20;;;;;;;;;6.33;6.33;;;;;;;;5091631;27;45303;-76
2022/10/05 06:12:48;;;;;;;;;7.67;6.00;;;;;;;;5058497;28;45343;-76
2022/10/05 06:15:14;;;;;;;;;6.33;6.33;;;;;;;;5059926;28;45383;-77
2022/10/05 06:17:44;;;;;;;;;6.67;5.33;;;;;;;;5059121;28;45633;-77
2022/10/05 06:20:21;;;;;;;;;7.67;6.00;;;;;;;;5059396;28;45479;-77
2022/10/05 06:22:47;;;;;;;;;6.67;6.00;;;;;;;;5057066;28;45344;-77
2022/10/05 06:25:13;;;;;;;;;5.00;4.00;;;;;;;;5057407;28;46202;-77
2022/10/05 06:27:58;;;;;;;;;6.00;5.00;;;;;;;;5057985;28;46233;-77
2022/10/05 06:30:25;;;;;;;;;9.00;7.00;;;;;;;;5058198;28;45257;-76
2022/10/05 06:32:56;;;;;;;;;6.67;5.00;;;;;;;;5057090;28;45320;-78
2022/10/05 06:35:32;;;;;;;;;6.67;5.67;;;;;;;;5058777;28;45657;-77
2022/10/05 06:38:09;;;;;;;;;6.00;6.00;;;;;;;;5057750;28;45594;-76
2022/10/05 06:40:45;;;;;;;;;4.00;4.00;;;;;;;;5054518;28;46080;-77
2022/10/05 06:43:29;;;;;;;;;6.00;5.00;;;;;;;;5052813;28;45488;-77
2022/10/05 06:46:00;;;;;;;;;5.00;5.00;;;;;;;;5055227;28;45544;-76
2022/10/05 06:48:32;;;;;;;;;5.00;4.00;;;;;;;;5055762;28;46524;-77
2022/10/05 06:51:03;;;;;;;;;5.00;5.00;;;;;;;;5057287;28;46080;-78
2022/10/05 06:53:42;;;;;;;;;6.67;5.00;;;;;;;;5059657;28;44812;-79
2022/10/05 06:56:11;;;;;;;;;5.67;4.33;;;;;;;;5060553;28;45433;-79
2022/10/05 06:58:37;;;;;;;;;6.00;5.00;;;;;;;;5058178;28;45239;-78
2022/10/05 07:01:05;;;;;;;;;6.00;6.00;;;;;;;;5058703;28;45275;-78
2022/10/05 07:03:36;;;;;;;;;7.67;6.67;;;;;;;;5056792;28;45335;-78
2022/10/05 07:06:10;;;;;;;;;5.67;5.67;;;;;;;;5058583;28;45549;-78
2022/10/05 07:08:35;;;;;;;;;6.00;5.00;;;;;;;;5056354;28;46922;-78
2022/10/05 07:11:10;;;;;;;;;6.00;6.00;;;;;;;;5057212;28;45761;-78
2022/10/05 07:13:54;;;;;;;;;6.00;6.00;;;;;;;;5058209;28;45224;-78
2022/10/05 07:16:22;;;;;;;;;8.00;6.33;;;;;;;;5057919;28;45217;-78
2022/10/05 07:18:53;;;;;;;;;7.00;6.00;;;;;;;;5057318;28;46040;-79
2022/10/05 07:21:30;;;;;;;;;3.67;3.67;;;;;;;;5058203;28;45471;-78
2022/10/05 07:23:58;;;;;;;;;6.00;5.00;;;;;;;;5056898;28;45275;-78
2022/10/05 07:26:44;;;;;;;;;5.00;5.00;;;;;;;;5057713;28;45242;-79
2022/10/05 07:29:09;;;;;;;;;4.00;4.00;;;;;;;;5060112;28;46443;-79
2022/10/05 07:31:55;;;;;;;;;9.33;6.33;;;;;;;;5058889;28;45521;-78
2022/10/05 07:34:37;;;;;;;;;4.00;4.00;;;;;;;;5060990;28;45409;-78
2022/10/05 07:40:03;;;;;;;;;7.00;6.00;;;;;;;;5061932;28;45355;-78
2022/10/05 07:42:39;;;;;;;;;6.00;6.00;;;;;;;;5060644;28;45512;-78
2022/10/05 07:45:23;;;;;;;;;7.00;6.00;;;;;;;;5060543;28;45259;-78
2022/10/05 07:47:53;;;;;;;;;7.00;5.00;;;;;;;;5060912;28;45462;-78
2022/10/05 07:50:22;;;;;;;;;5.67;5.67;;;;;;;;5061500;28;45299;-78
2022/10/05 07:53:01;;;;;;;;;6.00;6.00;;;;;;;;5060612;28;45249;-78
2022/10/05 07:55:35;;;;;;;;;6.67;5.67;;;;;;;;5060435;28;45430;-79
2022/10/05 07:58:04;;;;;;;;;5.67;5.67;;;;;;;;5060735;28;45491;-79
2022/10/05 08:00:47;;;;;;;;;4.33;4.33;;;;;;;;5061225;28;45355;-79
2022/10/05 08:03:17;;;;;;;;;5.67;5.00;;;;;;;;5062110;28;45426;-79
2022/10/05 08:05:44;;;;;;;;;7.00;5.00;;;;;;;;5065252;28;44878;-78
2022/10/05 08:08:14;;;;;;;;;5.00;5.00;;;;;;;;5060767;28;45382;-78
2022/10/05 08:10:58;;;;;;;;;6.00;5.00;;;;;;;;5061865;28;46438;-79
2022/10/05 08:13:23;;;;;;;;;4.00;4.00;;;;;;;;5060438;28;45270;-77
2022/10/05 08:15:50;;;;;;;;;5.33;4.33;;;;;;;;5061267;28;45210;-78
2022/10/05 08:18:23;;;;;;;;;6.33;5.00;;;;;;;;5060609;28;45530;-77
2022/10/05 08:20:51;;;;;;;;;5.33;4.00;;;;;;;;5061068;28;46172;-77
2022/10/05 08:23:21;;;;;;;;;7.33;5.33;;;;;;;;5060460;28;45445;-77
2022/10/05 08:25:55;;;;;;;;;5.67;5.33;;;;;;;;5060558;28;45407;-78
2022/10/05 08:28:23;;;;;;;;;5.00;3.00;;;;;;;;5059989;28;45461;-79
2022/10/05 08:31:08;;;;;;;;;4.33;4.00;;;;;;;;5060971;28;45438;-80
2022/10/05 08:33:39;;;;;;;;;6.67;5.00;;;;;;;;5048869;28;45835;-79
2022/10/05 08:36:07;;;;;;;;;7.67;5.00;;;;;;;;5060404;28;45414;-77
2022/10/05 08:38:33;;;;;;;;;4.33;4.33;;;;;;;;5061404;28;45257;-77
2022/10/05 08:41:09;;;;;;;;;6.00;6.00;;;;;;;;5062582;28;45414;-78
2022/10/05 08:43:49;;;;;;;;;6.00;6.00;;;;;;;;5061643;28;45326;-79
2022/10/05 08:46:34;;;;;;;;;5.67;5.00;;;;;;;;5059453;28;45149;-77
2022/10/05 08:49:15;;;;;;;;;5.33;5.00;;;;;;;;5059449;28;45277;-78
2022/10/05 08:51:48;;;;;;;;;7.00;7.00;;;;;;;;5074222;28;45489;-78
2022/10/05 08:54:25;;;;;;;;;7.00;4.00;;;;;;;;5060025;28;45545;-77
2022/10/05 08:57:09;;;;;;;;;5.00;4.67;;;;;;;;5059847;28;45335;-77
2022/10/05 08:59:40;;;;;;;;;5.33;4.00;;;;;;;;5059366;28;45344;-77
2022/10/05 09:02:30;;;;;;;;;4.00;4.00;;;;;;;;5056966;28;46249;-78
2022/10/05 09:05:08;;;;;;;;;6.67;5.67;;;;;;;;5052431;28;45459;-79
2022/10/05 09:07:51;;;;;;;;;7.00;5.00;;;;;;;;5056094;28;45285;-80
2022/10/05 09:10:19;;;;;;;;;12.67;9.67;;;;;;;;5050859;28;44785;-79
2022/10/05 09:12:53;;;;;;;;;6.00;6.00;;;;;;;;5046891;28;45285;-79
2022/10/05 09:15:38;;;;;;;;;6.00;6.00;;;;;;;;5058376;28;47252;-78
2022/10/05 09:18:22;;;;;;;;;8.00;5.00;;;;;;;;5055535;28;44694;-78
2022/10/05 09:20:54;;;;;;;;;4.33;4.00;;;;;;;;5059176;28;45293;-79
2022/10/05 09:23:28;;;;;;;;;4.33;4.33;;;;;;;;5052613;28;45447;-79
2022/10/05 09:25:53;;;;;;;;;6.33;5.00;;;;;;;;5058417;28;45325;-79
2022/10/05 09:28:22;;;;;;;;;3.67;3.67;;;;;;;;5048916;28;45486;-79
2022/10/05 09:30:50;;;;;;;;;5.00;5.00;;;;;;;;5054001;28;45295;-78
2022/10/05 09:33:25;;;;;;;;;5.00;4.00;;;;;;;;5057435;28;45398;-79
2022/10/05 09:36:10;;;;;;;;;6.00;5.00;;;;;;;;5060360;28;45485;-77
2022/10/05 09:38:54;;;;;;;;;4.00;4.00;;;;;;;;5049832;28;45269;-78
2022/10/05 09:41:44;;;;;;;;;3.33;3.33;;;;;;;;5053787;28;45513;-77
2022/10/05 09:44:09;;;;;;;;;6.33;6.33;;;;;;;;5087120;27;47272;-77
2022/10/05 09:46:46;;;;;;;;;1.67;0.33;;;;;;;;5056121;28;45342;-79
2022/10/05 09:49:37;;;;;;;;;4.67;3.33;;;;;;;;5056316;28;45435;-78
2022/10/05 09:52:21;;;;;;;;;3.67;2.67;;;;;;;;5052629;28;45459;-78
2022/10/05 09:55:00;;;;;;;;;6.00;6.00;;;;;;;;5060257;28;45508;-78
2022/10/05 09:57:38;;;;;;;;;7.00;4.33;;;;;;;;5058221;28;45524;-78
2022/10/05 10:00:14;;;;;;;;;5.67;4.00;;;;;;;;5058255;28;45516;-81
2022/10/05 10:02:54;;;;;;;;;5.33;4.00;;;;;;;;5059527;28;45403;-78
2022/10/05 10:05:22;;;;;;;;;5.00;5.00;;;;;;;;5058849;28;45540;-78
2022/10/05 10:07:56;;;;;;;;;4.67;4.67;;;;;;;;5042989;28;45457;-79
2022/10/05 10:10:48;;;;;;;;;3.67;3.67;;;;;;;;5053428;28;45211;-81
2022/10/05 10:13:27;;;;;;;;;5.00;4.00;;;;;;;;5045972;28;45311;-72
2022/10/05 10:16:01;;;;;;;;;4.67;4.67;;;;;;;;5052996;28;46479;-75
2022/10/05 10:18:41;;;;;;;;;2.67;2.67;;;;;;;;5051427;28;45435;-77
2022/10/05 10:21:06;;;;;;;;;3.00;3.00;;;;;;;;5083596;27;45442;-79
2022/10/05 10:23:35;;;;;;;;;2.67;2.67;;;;;;;;5074706;28;46208;-79
2022/10/05 10:26:00;;;;;;;;;3.67;2.00;;;;;;;;5058843;28;46175;-80
2022/10/05 10:28:28;;;;;;;;;3.33;1.67;;;;;;;;5059556;28;45375;-78
2022/10/05 10:30:53;;;;;;;;;6.67;4.00;;;;;;;;5057905;28;45427;-77
2022/10/05 10:33:37;;;;;;;;;4.00;2.67;;;;;;;;5074727;28;46017;-79
2022/10/05 10:36:41;;;;;;;;;3.00;3.00;;;;;;;;5059349;28;45423;-79
2022/10/05 10:39:22;;;;;;;;;2.67;2.67;;;;;;;;5021059;28;45279;-79
2022/10/05 10:41:57;;;;;;;;;1.67;1.67;;;;;;;;5019754;28;45444;-80
2022/10/05 10:44:41;;;;;;;;;2.33;2.33;;;;;;;;5042534;28;45554;-80
2022/10/05 10:47:26;;;;;;;;;2.50;2.50;;;;;;;;5056848;28;45488;-79
2022/10/05 10:50:10;;;;;;;;;3.33;3.33;;;;;;;;5035939;28;45603;-80
2022/10/05 10:53:00;;;;;;;;;3.67;2.67;;;;;;;;5057198;28;45174;-79
2022/10/05 10:55:44;;;;;;;;;0.00;0.00;;;;;;;;5057472;28;45438;-78
2022/10/05 10:58:09;;;;;;;;;0.67;0.67;;;;;;;;5048920;28;46729;-78
2022/10/05 11:00:35;;;;;;;;;1.67;0.67;;;;;;;;5062853;28;45363;-79
2022/10/05 11:03:00;;;;;;;;;1.67;1.67;;;;;;;;5042692;28;45589;-78
2022/10/05 11:05:25;;;;;;;;;3.00;3.00;;;;;;;;5057897;28;45297;-75
2022/10/05 11:07:50;;;;;;;;;3.67;2.33;;;;;;;;5044612;28;46043;-78
2022/10/05 11:10:24;;;;;;;;;1.33;1.33;;;;;;;;5053380;28;45288;-79
2022/10/05 11:13:08;;;;;;;;;1.50;1.50;;;;;;;;5051499;28;45442;-78
2022/10/05 11:15:39;;;;;;;;;1.67;1.67;;;;;;;;5054894;28;45677;-79
2022/10/05 11:18:16;;;;;;;;;2.00;2.00;;;;;;;;5049718;28;45354;-78
2022/10/05 11:21:00;;;;;;;;;2.00;2.00;;;;;;;;5057189;28;45405;-79
2022/10/05 11:23:38;;;;;;;;;3.00;3.00;;;;;;;;5054045;28;46480;-79
2022/10/05 11:26:03;;;;;;;;;2.50;2.00;;;;;;;;5056095;28;45299;-76
2022/10/05 11:28:40;;;;;;;;;3.75;2.75;;;;;;;;5053222;28;45570;-75
2022/10/05 11:31:22;;;;;;;;;3.00;3.00;;;;;;;;5051703;28;45321;-75
2022/10/05 11:34:06;;;;;;;;;2.75;2.75;;;;;;;;5055564;28;45603;-77
2022/10/05 11:36:54;;;;;;;;;3.00;2.00;;;;;;;;5055655;28;45367;-76
2022/10/05 11:39:25;;;;;;;;;2.00;2.00;;;;;;;;5036669;28;47087;-75
2022/10/05 11:41:53;;;;;;;;;2.50;2.50;;;;;;;;5053593;28;45369;-75
2022/10/05 11:44:34;;;;;;;;;4.00;2.00;;;;;;;;5059943;28;45408;-75
2022/10/05 11:47:07;;;;;;;;;1.00;1.00;;;;;;;;5056342;28;45615;-77
2022/10/05 11:49:41;;;;;;;;;3.25;1.50;;;;;;;;5058832;28;45233;-78
2022/10/05 11:52:22;;;;;;;;;1.20;1.20;;;;;;;;5049375;28;45385;-76
2022/10/05 11:55:03;;;;;;;;;1.00;1.00;;;;;;;;5040769;28;45328;-76
2022/10/05 11:57:36;;;;;;;;;2.00;2.00;;;;;;;;5052393;28;45309;-76
2022/10/05 12:00:01;;;;;;;;;1.25;1.25;;;;;;;;5050846;28;45306;-77
2022/10/05 12:02:26;;;;;;;;;3.00;2.00;;;;;;;;5053913;28;45445;-77
2022/10/05 12:04:52;;;;;;;;;3.00;3.00;;;;;;;;5057476;28;45239;-76
2022/10/05 12:07:29;;;;;;;;;1.00;1.00;;;;;;;;5066052;28;45273;-76
2022/10/05 12:10:13;;;;;;;;;2.00;2.00;;;;;;;;5056439;28;47042;-77
2022/10/05 12:12:44;;;;;;;;;2.60;2.60;;;;;;;;5051808;28;45291;-77
2022/10/05 12:15:17;;;;;;;;;4.00;3.00;;;;;;;;5044375;28;45339;-77
2022/10/05 12:17:49;;;;;;;;;2.25;2.00;;;;;;;;5057348;28;46286;-76
2022/10/05 12:20:21;;;;;;;;;1.20;1.20;;;;;;;;5049164;28;45559;-76
2022/10/05 12:22:52;;;;;;;;;2.00;2.00;;;;;;;;5055523;28;45386;-76
2022/10/05 12:25:24;;;;;;;;;2.50;2.50;;;;;;;;5053408;28;45358;-77
2022/10/05 12:27:51;;;;;;;;;1.50;1.50;;;;;;;;5069439;28;47100;-76
2022/10/05 12:30:35;;;;;;;;;2.00;2.00;;;;;;;;5071287;28;45725;-77
2022/10/05 12:33:05;;;;;;;;;1.60;1.60;;;;;;;;5059670;28;45319;-77
2022/10/05 12:35:34;;;;;;;;;3.00;3.00;;;;;;;;5057230;28;45303;-77
2022/10/05 12:38:14;;;;;;;;;3.00;3.00;;;;;;;;5059899;28;45648;-77
2022/10/05 12:40:44;;;;;;;;;2.00;2.00;;;;;;;;5058388;28;48688;-77
2022/10/05 12:43:27;;;;;;;;;3.20;3.20;;;;;;;;5057429;28;45257;-76
2022/10/05 12:46:05;;;;;;;;;4.50;3.00;;;;;;;;5050940;28;45237;-77
2022/10/05 12:48:30;;;;;;;;;2.25;2.25;;;;;;;;5051715;28;45304;-77
2022/10/05 12:51:14;;;;;;;;;4.25;3.50;;;;;;;;5072244;28;47140;-77
2022/10/05 12:53:58;;;;;;;;;1.50;1.50;;;;;;;;5046236;28;44706;-76
2022/10/05 12:56:29;;;;;;;;;2.75;2.75;;;;;;;;5058100;28;45701;-77
2022/10/05 12:59:00;;;;;;;;;4.75;3.00;;;;;;;;5054804;28;45654;-77
2022/10/05 13:01:32;;;;;;;;;5.00;2.25;;;;;;;;5054015;28;45247;-77
2022/10/05 13:04:07;;;;;;;;;3.00;3.00;;;;;;;;5056884;28;45355;-76
2022/10/05 13:06:40;;;;;;;;;2.50;2.50;;;;;;;;5056952;28;45204;-77
2022/10/05 13:09:16;;;;;;;;;3.50;2.50;;;;;;;;5059641;28;45676;-77
2022/10/05 13:11:46;;;;;;;;;4.00;3.00;;;;;;;;5058843;28;47508;-76
2022/10/05 13:14:22;;;;;;;;;3.00;2.00;;;;;;;;5060756;28;45540;-76
2022/10/05 13:16:58;;;;;;;;;2.75;2.75;;;;;;;;5053363;28;45374;-76
2022/10/05 13:19:56;;;;;;;;;3.75;3.00;;;;;;;;5059552;28;46116;-76
2022/10/05 13:22:30;;;;;;;;;4.00;2.50;;;;;;;;5043912;27;46801;-76
2022/10/05 13:25:08;;;;;;;;;2.40;0.80;;;;;;;;5050440;28;45347;-76
2022/10/05 13:27:34;;;;;;;;;3.75;3.75;;;;;;;;5054335;28;45362;-76
2022/10/05 13:30:14;;;;;;;;;2.75;2.50;;;;;;;;5051111;28;45914;-76
2022/10/05 13:32:42;;;;;;;;;2.25;2.00;;;;;;;;5058372;28;46579;-77
2022/10/05 13:35:23;;;;;;;;;5.00;3.00;;;;;;;;5058512;28;45421;-77
2022/10/05 13:37:59;;;;;;;;;3.00;3.00;;;;;;;;5056279;28;45529;-76
2022/10/05 13:40:30;;;;;;;;;4.00;4.00;;;;;;;;5055394;28;45233;-77
2022/10/05 13:42:56;;;;;;;;;3.75;2.75;;;;;;;;5055305;28;47066;-76
2022/10/05 13:45:23;;;;;;;;;3.75;3.75;;;;;;;;5056967;28;45334;-77
2022/10/05 13:47:57;;;;;;;;;4.50;2.75;;;;;;;;5058445;28;45454;-76
2022/10/05 13:50:25;;;;;;;;;3.25;3.25;;;;;;;;5059095;28;45330;-77
2022/10/05 13:52:53;;;;;;;;;4.25;3.25;;;;;;;;5056559;28;45323;-77
2022/10/05 13:55:18;;;;;;;;;4.00;4.00;;;;;;;;5060778;28;45245;-77
2022/10/05 13:57:52;;;;;;;;;3.75;3.00;;;;;;;;5058272;28;45955;-77
2022/10/05 14:00:19;;;;;;;;;4.00;4.00;;;;;;;;5048253;28;45152;-77
2022/10/05 14:02:47;;;;;;;;;4.25;3.25;;;;;;;;5058887;28;46122;-77
2022/10/05 14:05:14;;;;;;;;;3.80;2.80;;;;;;;;5050445;28;45495;-77
2022/10/05 14:08:15;;;;;;;;;3.75;3.75;;;;;;;;5059084;28;45346;-73
2022/10/05 14:10:42;;;;;;;;;5.00;5.00;;;;;;;;4994453;28;45521;-75
2022/10/05 14:13:10;;;;;;;;;3.00;3.00;;;;;;;;5044840;28;46200;-74
2022/10/05 14:15:35;;;;;;;;;3.80;3.80;;;;;;;;5056774;28;45387;-75
2022/10/05 14:18:20;;;;;;;;;4.50;4.00;;;;;;;;5058260;28;45414;-75
2022/10/05 14:21:04;;;;;;;;;5.25;5.25;;;;;;;;5045735;28;45626;-73
2022/10/05 14:23:30;;;;;;;;;4.00;4.00;;;;;;;;5056907;28;46953;-75
2022/10/05 14:25:55;;;;;;;;;3.75;2.75;;;;;;;;5050609;28;45291;-74
2022/10/05 14:28:24;;;;;;;;;4.25;4.25;;;;;;;;5055123;28;45276;-74
2022/10/05 14:30:57;;;;;;;;;5.00;5.00;;;;;;;;5084675;27;47125;-74
2022/10/05 14:33:24;;;;;;;;;4.75;4.75;;;;;;;;5055850;28;45320;-75
2022/10/05 14:35:50;;;;;;;;;5.00;5.00;;;;;;;;5058263;28;45186;-75
2022/10/05 14:38:28;;;;;;;;;3.00;3.00;;;;;;;;5058255;28;45558;-74
2022/10/05 14:41:04;;;;;;;;;3.75;3.75;;;;;;;;5053896;28;45370;-74
2022/10/05 14:43:29;;;;;;;;;5.00;4.50;;;;;;;;5057355;28;45379;-75
2022/10/05 14:46:02;;;;;;;;;6.25;4.00;;;;;;;;5056850;28;45327;-74
2022/10/05 14:48:36;;;;;;;;;3.50;3.50;;;;;;;;5058326;28;45309;-75
2022/10/05 14:51:08;;;;;;;;;5.25;5.25;;;;;;;;5046651;28;45261;-75
2022/10/05 14:53:42;;;;;;;;;5.00;5.00;;;;;;;;5057678;28;45279;-74
2022/10/05 14:56:26;;;;;;;;;5.00;4.50;;;;;;;;5084398;27;45760;-75
2022/10/05 14:58:52;;;;;;;;;4.00;4.00;;;;;;;;5048130;28;45303;-74
2022/10/05 15:01:35;;;;;;;;;5.00;5.00;;;;;;;;5050838;28;45888;-72
2022/10/05 15:04:20;;;;;;;;;6.25;5.00;;;;;;;;5057710;28;47731;-76
2022/10/05 15:07:04;;;;;;;;;4.50;3.00;;;;;;;;5053402;28;45465;-76
2022/10/05 15:09:48;;;;;;;;;6.75;5.25;;;;;;;;5055901;28;45465;-76
2022/10/05 15:12:19;;;;;;;;;5.00;5.00;;;;;;;;5055373;28;45387;-75
2022/10/05 15:14:46;;;;;;;;;8.00;7.00;;;;;;;;5051313;28;45462;-75
2022/10/05 15:17:15;;;;;;;;;8.75;6.25;;;;;;;;5054732;28;45403;-75
2022/10/05 15:19:49;;;;;;;;;4.75;4.75;;;;;;;;5045815;28;45315;-75
2022/10/05 15:22:18;;;;;;;;;7.00;5.75;;;;;;;;5081491;27;46192;-76
2022/10/05 15:24:43;;;;;;;;;4.75;4.75;;;;;;;;5049257;28;45319;-75